sensor_id;sensor_type;location;lat;lon;timestamp;P1;durP1;ratioP1;P2;durP2;ratioP2
33714;SDS011;20043;50.998;4.754;2023-05-14T00:00:35;52.03;;;36.97;;
33714;SDS011;20043;50.998;4.754;2023-05-14T00:03:01;50.97;;;37.45;;
33714;SDS011;20043;50.998;4.754;2023-05-14T00:05:26;55.03;;;41.15;;
33714;SDS011;20043;50.998;4.754;2023-05-14T00:07:52;58.17;;;40.55;;
33714;SDS011;20043;50.998;4.754;2023-05-14T00:10:17;55.10;;;37.90;;
33714;SDS011;20043;50.998;4.754;2023-05-14T00:12:45;54.75;;;40.22;;
33714;SDS011;20043;50.998;4.754;2023-05-14T00:15:11;57.30;;;40.67;;
33714;SDS011;20043;50.998;4.754;2023-05-14T00:17:37;55.13;;;39.80;;
33714;SDS011;20043;50.998;4.754;2023-05-14T00:20:03;54.63;;;40.05;;
33714;SDS011;20043;50.998;4.754;2023-05-14T00:22:31;56.90;;;40.15;;
33714;SDS011;20043;50.998;4.754;2023-05-14T00:24:58;55.83;;;40.35;;
33714;SDS011;20043;50.998;4.754;2023-05-14T00:27:23;54.05;;;40.70;;
33714;SDS011;20043;50.998;4.754;2023-05-14T00:29:49;54.92;;;40.72;;
33714;SDS011;20043;50.998;4.754;2023-05-14T00:32:15;57.47;;;39.38;;
33714;SDS011;20043;50.998;4.754;2023-05-14T00:34:41;54.53;;;39.50;;
33714;SDS011;20043;50.998;4.754;2023-05-14T00:37:06;53.92;;;40.45;;
33714;SDS011;20043;50.998;4.754;2023-05-14T00:39:32;51.75;;;39.55;;
33714;SDS011;20043;50.998;4.754;2023-05-14T00:41:58;59.28;;;43.50;;
33714;SDS011;20043;50.998;4.754;2023-05-14T00:44:24;55.42;;;41.85;;
33714;SDS011;20043;50.998;4.754;2023-05-14T00:46:49;56.67;;;41.03;;
33714;SDS011;20043;50.998;4.754;2023-05-14T00:49:15;52.35;;;40.63;;
33714;SDS011;20043;50.998;4.754;2023-05-14T00:51:41;52.45;;;41.40;;
33714;SDS011;20043;50.998;4.754;2023-05-14T00:54:10;55.40;;;42.75;;
33714;SDS011;20043;50.998;4.754;2023-05-14T00:56:41;56.97;;;44.13;;
33714;SDS011;20043;50.998;4.754;2023-05-14T00:59:08;55.78;;;42.08;;
33714;SDS011;20043;50.998;4.754;2023-05-14T01:01:34;55.63;;;43.55;;
33714;SDS011;20043;50.998;4.754;2023-05-14T01:04:07;53.28;;;42.45;;
33714;SDS011;20043;50.998;4.754;2023-05-14T01:14:33;62.63;;;45.70;;
33714;SDS011;20043;50.998;4.754;2023-05-14T01:17:18;66.03;;;44.35;;
33714;SDS011;20043;50.998;4.754;2023-05-14T01:19:46;62.13;;;44.10;;
33714;SDS011;20043;50.998;4.754;2023-05-14T01:22:13;59.85;;;43.75;;
33714;SDS011;20043;50.998;4.754;2023-05-14T01:24:39;54.22;;;44.22;;
33714;SDS011;20043;50.998;4.754;2023-05-14T01:27:14;60.95;;;45.78;;
33714;SDS011;20043;50.998;4.754;2023-05-14T01:29:42;59.55;;;44.38;;
33714;SDS011;20043;50.998;4.754;2023-05-14T01:32:17;64.72;;;46.78;;
33714;SDS011;20043;50.998;4.754;2023-05-14T01:34:44;64.43;;;46.53;;
33714;SDS011;20043;50.998;4.754;2023-05-14T01:37:12;59.97;;;45.45;;
33714;SDS011;20043;50.998;4.754;2023-05-14T01:39:39;61.45;;;44.88;;
33714;SDS011;20043;50.998;4.754;2023-05-14T01:42:06;72.32;;;45.35;;
33714;SDS011;20043;50.998;4.754;2023-05-14T01:44:33;56.47;;;43.65;;
33714;SDS011;20043;50.998;4.754;2023-05-14T01:46:59;70.38;;;47.58;;
33714;SDS011;20043;50.998;4.754;2023-05-14T01:49:25;64.03;;;47.30;;
33714;SDS011;20043;50.998;4.754;2023-05-14T01:51:51;60.45;;;48.03;;
33714;SDS011;20043;50.998;4.754;2023-05-14T01:54:16;63.83;;;47.75;;
33714;SDS011;20043;50.998;4.754;2023-05-14T01:56:42;60.70;;;46.53;;
33714;SDS011;20043;50.998;4.754;2023-05-14T01:59:07;63.15;;;48.10;;
33714;SDS011;20043;50.998;4.754;2023-05-14T02:01:33;69.80;;;50.67;;
33714;SDS011;20043;50.998;4.754;2023-05-14T02:03:59;62.85;;;49.20;;
33714;SDS011;20043;50.998;4.754;2023-05-14T02:06:25;67.57;;;47.83;;
33714;SDS011;20043;50.998;4.754;2023-05-14T02:08:51;68.75;;;51.33;;
33714;SDS011;20043;50.998;4.754;2023-05-14T02:11:16;67.28;;;50.42;;
33714;SDS011;20043;50.998;4.754;2023-05-14T02:13:42;63.33;;;48.28;;
33714;SDS011;20043;50.998;4.754;2023-05-14T02:16:08;64.70;;;49.25;;
33714;SDS011;20043;50.998;4.754;2023-05-14T02:18:33;70.50;;;53.78;;
33714;SDS011;20043;50.998;4.754;2023-05-14T02:20:59;74.43;;;54.65;;
33714;SDS011;20043;50.998;4.754;2023-05-14T02:23:25;77.25;;;56.45;;
33714;SDS011;20043;50.998;4.754;2023-05-14T02:25:50;75.30;;;53.53;;
33714;SDS011;20043;50.998;4.754;2023-05-14T02:28:16;75.90;;;54.97;;
33714;SDS011;20043;50.998;4.754;2023-05-14T02:30:41;80.68;;;56.15;;
33714;SDS011;20043;50.998;4.754;2023-05-14T02:33:07;74.60;;;54.70;;
33714;SDS011;20043;50.998;4.754;2023-05-14T02:35:33;73.50;;;55.70;;
33714;SDS011;20043;50.998;4.754;2023-05-14T02:37:58;68.10;;;52.30;;
33714;SDS011;20043;50.998;4.754;2023-05-14T02:40:24;83.22;;;56.75;;
33714;SDS011;20043;50.998;4.754;2023-05-14T02:42:50;74.63;;;56.38;;
33714;SDS011;20043;50.998;4.754;2023-05-14T02:45:15;74.43;;;56.90;;
33714;SDS011;20043;50.998;4.754;2023-05-14T02:47:41;75.50;;;57.00;;
33714;SDS011;20043;50.998;4.754;2023-05-14T02:50:07;93.75;;;59.42;;
33714;SDS011;20043;50.998;4.754;2023-05-14T02:52:33;83.40;;;59.70;;
33714;SDS011;20043;50.998;4.754;2023-05-14T02:54:59;85.68;;;59.92;;
33714;SDS011;20043;50.998;4.754;2023-05-14T02:57:25;88.25;;;63.08;;
33714;SDS011;20043;50.998;4.754;2023-05-14T02:59:51;83.82;;;61.63;;
33714;SDS011;20043;50.998;4.754;2023-05-14T03:02:16;84.90;;;60.70;;
33714;SDS011;20043;50.998;4.754;2023-05-14T03:04:42;96.05;;;64.60;;
33714;SDS011;20043;50.998;4.754;2023-05-14T03:07:08;83.85;;;60.28;;
33714;SDS011;20043;50.998;4.754;2023-05-14T03:09:33;84.70;;;61.05;;
33714;SDS011;20043;50.998;4.754;2023-05-14T03:11:59;89.70;;;64.38;;
33714;SDS011;20043;50.998;4.754;2023-05-14T03:14:25;87.10;;;60.72;;
33714;SDS011;20043;50.998;4.754;2023-05-14T03:16:50;94.50;;;63.55;;
33714;SDS011;20043;50.998;4.754;2023-05-14T03:19:16;88.28;;;62.38;;
33714;SDS011;20043;50.998;4.754;2023-05-14T03:21:42;89.68;;;63.00;;
33714;SDS011;20043;50.998;4.754;2023-05-14T03:24:07;92.97;;;66.18;;
33714;SDS011;20043;50.998;4.754;2023-05-14T03:26:33;94.50;;;64.47;;
33714;SDS011;20043;50.998;4.754;2023-05-14T03:28:58;88.97;;;62.08;;
33714;SDS011;20043;50.998;4.754;2023-05-14T03:31:24;91.25;;;64.65;;
33714;SDS011;20043;50.998;4.754;2023-05-14T03:33:50;89.25;;;65.18;;
33714;SDS011;20043;50.998;4.754;2023-05-14T03:36:23;86.80;;;63.10;;
33714;SDS011;20043;50.998;4.754;2023-05-14T03:38:48;95.97;;;66.28;;
33714;SDS011;20043;50.998;4.754;2023-05-14T03:41:14;94.35;;;65.47;;
33714;SDS011;20043;50.998;4.754;2023-05-14T03:43:41;92.22;;;62.90;;
33714;SDS011;20043;50.998;4.754;2023-05-14T03:46:07;83.18;;;61.40;;
33714;SDS011;20043;50.998;4.754;2023-05-14T03:48:33;87.40;;;62.80;;
33714;SDS011;20043;50.998;4.754;2023-05-14T03:50:59;96.40;;;66.97;;
33714;SDS011;20043;50.998;4.754;2023-05-14T03:53:24;88.97;;;63.83;;
33714;SDS011;20043;50.998;4.754;2023-05-14T03:55:50;89.07;;;64.78;;
33714;SDS011;20043;50.998;4.754;2023-05-14T03:58:16;94.57;;;66.07;;
33714;SDS011;20043;50.998;4.754;2023-05-14T04:00:42;89.47;;;64.40;;
33714;SDS011;20043;50.998;4.754;2023-05-14T04:03:07;89.15;;;65.75;;
33714;SDS011;20043;50.998;4.754;2023-05-14T04:05:34;89.35;;;65.07;;
33714;SDS011;20043;50.998;4.754;2023-05-14T04:08:00;90.28;;;63.33;;
33714;SDS011;20043;50.998;4.754;2023-05-14T04:10:25;86.60;;;64.38;;
33714;SDS011;20043;50.998;4.754;2023-05-14T04:12:51;98.45;;;66.53;;
33714;SDS011;20043;50.998;4.754;2023-05-14T04:15:17;86.15;;;62.78;;
33714;SDS011;20043;50.998;4.754;2023-05-14T04:17:42;93.50;;;64.10;;
33714;SDS011;20043;50.998;4.754;2023-05-14T04:20:08;94.22;;;65.07;;
33714;SDS011;20043;50.998;4.754;2023-05-14T04:22:34;86.10;;;62.67;;
33714;SDS011;20043;50.998;4.754;2023-05-14T04:25:00;90.40;;;65.50;;
33714;SDS011;20043;50.998;4.754;2023-05-14T04:27:25;96.55;;;65.28;;
33714;SDS011;20043;50.998;4.754;2023-05-14T04:29:52;98.75;;;66.53;;
33714;SDS011;20043;50.998;4.754;2023-05-14T04:32:17;88.70;;;64.40;;
33714;SDS011;20043;50.998;4.754;2023-05-14T04:34:43;95.88;;;63.70;;
33714;SDS011;20043;50.998;4.754;2023-05-14T04:37:10;90.22;;;64.25;;
33714;SDS011;20043;50.998;4.754;2023-05-14T04:39:36;85.85;;;62.28;;
33714;SDS011;20043;50.998;4.754;2023-05-14T04:42:02;89.72;;;64.15;;
33714;SDS011;20043;50.998;4.754;2023-05-14T04:44:28;92.43;;;63.85;;
33714;SDS011;20043;50.998;4.754;2023-05-14T04:46:53;90.07;;;65.22;;
33714;SDS011;20043;50.998;4.754;2023-05-14T04:49:19;101.50;;;68.00;;
33714;SDS011;20043;50.998;4.754;2023-05-14T04:51:45;96.93;;;64.18;;
33714;SDS011;20043;50.998;4.754;2023-05-14T04:54:12;111.80;;;69.35;;
33714;SDS011;20043;50.998;4.754;2023-05-14T04:56:37;107.13;;;64.88;;
33714;SDS011;20043;50.998;4.754;2023-05-14T04:59:03;114.53;;;71.70;;
33714;SDS011;20043;50.998;4.754;2023-05-14T05:01:29;104.50;;;67.28;;
33714;SDS011;20043;50.998;4.754;2023-05-14T05:03:54;114.47;;;71.18;;
33714;SDS011;20043;50.998;4.754;2023-05-14T05:06:21;115.82;;;71.47;;
33714;SDS011;20043;50.998;4.754;2023-05-14T05:08:47;103.00;;;66.65;;
33714;SDS011;20043;50.998;4.754;2023-05-14T05:11:13;101.22;;;66.78;;
33714;SDS011;20043;50.998;4.754;2023-05-14T05:13:38;107.07;;;69.35;;
33714;SDS011;20043;50.998;4.754;2023-05-14T05:16:04;103.60;;;69.50;;
33714;SDS011;20043;50.998;4.754;2023-05-14T05:18:30;113.35;;;68.00;;
33714;SDS011;20043;50.998;4.754;2023-05-14T05:20:56;110.72;;;69.43;;
33714;SDS011;20043;50.998;4.754;2023-05-14T05:23:22;110.93;;;69.55;;
33714;SDS011;20043;50.998;4.754;2023-05-14T05:25:47;106.93;;;68.05;;
33714;SDS011;20043;50.998;4.754;2023-05-14T05:28:14;111.97;;;67.43;;
33714;SDS011;20043;50.998;4.754;2023-05-14T05:30:40;121.43;;;70.20;;
33714;SDS011;20043;50.998;4.754;2023-05-14T05:33:06;115.35;;;68.25;;
33714;SDS011;20043;50.998;4.754;2023-05-14T05:35:31;101.88;;;63.33;;
33714;SDS011;20043;50.998;4.754;2023-05-14T05:37:57;115.72;;;67.53;;
33714;SDS011;20043;50.998;4.754;2023-05-14T05:40:23;107.53;;;65.80;;
33714;SDS011;20043;50.998;4.754;2023-05-14T05:42:48;106.35;;;65.18;;
33714;SDS011;20043;50.998;4.754;2023-05-14T05:45:14;108.97;;;68.13;;
33714;SDS011;20043;50.998;4.754;2023-05-14T05:47:39;107.03;;;66.00;;
33714;SDS011;20043;50.998;4.754;2023-05-14T05:50:05;113.15;;;68.63;;
33714;SDS011;20043;50.998;4.754;2023-05-14T05:52:31;106.15;;;65.75;;
33714;SDS011;20043;50.998;4.754;2023-05-14T05:54:57;104.80;;;65.80;;
33714;SDS011;20043;50.998;4.754;2023-05-14T05:57:23;111.07;;;65.95;;
33714;SDS011;20043;50.998;4.754;2023-05-14T05:59:51;108.85;;;66.60;;
33714;SDS011;20043;50.998;4.754;2023-05-14T06:02:17;108.32;;;68.80;;
33714;SDS011;20043;50.998;4.754;2023-05-14T06:04:43;102.20;;;64.43;;
33714;SDS011;20043;50.998;4.754;2023-05-14T06:07:09;109.80;;;64.55;;
33714;SDS011;20043;50.998;4.754;2023-05-14T06:09:34;102.45;;;61.97;;
33714;SDS011;20043;50.998;4.754;2023-05-14T06:12:00;104.03;;;63.10;;
33714;SDS011;20043;50.998;4.754;2023-05-14T06:14:25;105.10;;;61.70;;
33714;SDS011;20043;50.998;4.754;2023-05-14T06:16:51;100.38;;;62.47;;
33714;SDS011;20043;50.998;4.754;2023-05-14T06:19:17;97.35;;;60.85;;
33714;SDS011;20043;50.998;4.754;2023-05-14T06:21:43;91.63;;;58.33;;
33714;SDS011;20043;50.998;4.754;2023-05-14T06:24:09;84.07;;;54.13;;
33714;SDS011;20043;50.998;4.754;2023-05-14T06:26:34;84.25;;;53.22;;
33714;SDS011;20043;50.998;4.754;2023-05-14T06:29:00;75.13;;;50.20;;
33714;SDS011;20043;50.998;4.754;2023-05-14T06:31:26;73.20;;;48.10;;
33714;SDS011;20043;50.998;4.754;2023-05-14T06:33:51;72.13;;;48.15;;
33714;SDS011;20043;50.998;4.754;2023-05-14T06:36:17;75.65;;;47.92;;
33714;SDS011;20043;50.998;4.754;2023-05-14T06:38:42;67.03;;;48.80;;
33714;SDS011;20043;50.998;4.754;2023-05-14T06:41:08;73.45;;;49.90;;
33714;SDS011;20043;50.998;4.754;2023-05-14T06:43:33;69.90;;;48.72;;
33714;SDS011;20043;50.998;4.754;2023-05-14T06:45:59;72.55;;;48.95;;
33714;SDS011;20043;50.998;4.754;2023-05-14T06:48:25;76.47;;;50.70;;
33714;SDS011;20043;50.998;4.754;2023-05-14T06:50:53;80.15;;;53.22;;
33714;SDS011;20043;50.998;4.754;2023-05-14T06:53:19;93.20;;;56.17;;
33714;SDS011;20043;50.998;4.754;2023-05-14T06:55:48;90.22;;;55.35;;
33714;SDS011;20043;50.998;4.754;2023-05-14T06:58:13;87.07;;;54.35;;
33714;SDS011;20043;50.998;4.754;2023-05-14T07:00:39;91.75;;;56.70;;
33714;SDS011;20043;50.998;4.754;2023-05-14T07:03:05;89.65;;;54.40;;
33714;SDS011;20043;50.998;4.754;2023-05-14T07:05:30;80.10;;;52.22;;
33714;SDS011;20043;50.998;4.754;2023-05-14T07:07:56;78.88;;;51.85;;
33714;SDS011;20043;50.998;4.754;2023-05-14T07:10:22;83.25;;;52.20;;
33714;SDS011;20043;50.998;4.754;2023-05-14T07:12:48;83.75;;;50.30;;
33714;SDS011;20043;50.998;4.754;2023-05-14T07:15:13;89.55;;;51.92;;
33714;SDS011;20043;50.998;4.754;2023-05-14T07:17:39;78.47;;;51.13;;
33714;SDS011;20043;50.998;4.754;2023-05-14T07:20:05;83.32;;;52.63;;
33714;SDS011;20043;50.998;4.754;2023-05-14T07:22:31;88.78;;;53.33;;
33714;SDS011;20043;50.998;4.754;2023-05-14T07:24:57;86.43;;;53.95;;
33714;SDS011;20043;50.998;4.754;2023-05-14T07:27:22;83.32;;;51.72;;
33714;SDS011;20043;50.998;4.754;2023-05-14T07:29:48;86.65;;;53.80;;
33714;SDS011;20043;50.998;4.754;2023-05-14T07:32:14;87.40;;;53.40;;
33714;SDS011;20043;50.998;4.754;2023-05-14T07:34:40;88.18;;;53.25;;
33714;SDS011;20043;50.998;4.754;2023-05-14T07:37:06;91.80;;;56.08;;
33714;SDS011;20043;50.998;4.754;2023-05-14T07:39:31;83.97;;;54.28;;
33714;SDS011;20043;50.998;4.754;2023-05-14T07:41:57;85.47;;;55.38;;
33714;SDS011;20043;50.998;4.754;2023-05-14T07:44:24;82.35;;;54.22;;
33714;SDS011;20043;50.998;4.754;2023-05-14T07:46:49;76.72;;;51.28;;
33714;SDS011;20043;50.998;4.754;2023-05-14T07:49:15;78.15;;;51.30;;
33714;SDS011;20043;50.998;4.754;2023-05-14T07:51:41;76.18;;;51.28;;
33714;SDS011;20043;50.998;4.754;2023-05-14T07:54:06;78.13;;;52.58;;
33714;SDS011;20043;50.998;4.754;2023-05-14T07:56:32;79.00;;;50.08;;
33714;SDS011;20043;50.998;4.754;2023-05-14T07:58:57;76.07;;;48.53;;
33714;SDS011;20043;50.998;4.754;2023-05-14T08:01:23;71.50;;;47.33;;
33714;SDS011;20043;50.998;4.754;2023-05-14T08:03:55;71.68;;;48.70;;
33714;SDS011;20043;50.998;4.754;2023-05-14T08:06:21;66.68;;;47.05;;
33714;SDS011;20043;50.998;4.754;2023-05-14T08:08:47;67.82;;;46.78;;
33714;SDS011;20043;50.998;4.754;2023-05-14T08:11:13;67.70;;;47.60;;
33714;SDS011;20043;50.998;4.754;2023-05-14T08:13:38;67.20;;;45.53;;
33714;SDS011;20043;50.998;4.754;2023-05-14T08:16:04;62.53;;;42.60;;
33714;SDS011;20043;50.998;4.754;2023-05-14T08:18:31;56.38;;;40.72;;
33714;SDS011;20043;50.998;4.754;2023-05-14T08:20:56;63.50;;;41.60;;
33714;SDS011;20043;50.998;4.754;2023-05-14T08:23:22;58.65;;;42.45;;
33714;SDS011;20043;50.998;4.754;2023-05-14T08:25:47;59.10;;;42.35;;
33714;SDS011;20043;50.998;4.754;2023-05-14T08:28:13;57.30;;;40.33;;
33714;SDS011;20043;50.998;4.754;2023-05-14T08:30:39;63.75;;;39.75;;
33714;SDS011;20043;50.998;4.754;2023-05-14T08:33:04;49.50;;;38.38;;
33714;SDS011;20043;50.998;4.754;2023-05-14T08:35:30;53.45;;;37.05;;
33714;SDS011;20043;50.998;4.754;2023-05-14T08:37:55;55.80;;;37.65;;
33714;SDS011;20043;50.998;4.754;2023-05-14T08:40:21;47.08;;;33.53;;
33714;SDS011;20043;50.998;4.754;2023-05-14T08:42:47;49.83;;;31.80;;
33714;SDS011;20043;50.998;4.754;2023-05-14T08:45:19;36.13;;;27.40;;
33714;SDS011;20043;50.998;4.754;2023-05-14T08:47:48;36.13;;;26.10;;
33714;SDS011;20043;50.998;4.754;2023-05-14T08:50:15;32.80;;;26.23;;
33714;SDS011;20043;50.998;4.754;2023-05-14T08:52:41;36.35;;;24.77;;
33714;SDS011;20043;50.998;4.754;2023-05-14T08:55:08;32.20;;;22.95;;
33714;SDS011;20043;50.998;4.754;2023-05-14T08:57:35;33.08;;;24.15;;
33714;SDS011;20043;50.998;4.754;2023-05-14T09:00:02;35.03;;;21.95;;
33714;SDS011;20043;50.998;4.754;2023-05-14T09:02:40;31.42;;;22.55;;
33714;SDS011;20043;50.998;4.754;2023-05-14T09:05:08;29.70;;;23.00;;
33714;SDS011;20043;50.998;4.754;2023-05-14T09:07:34;29.20;;;22.45;;
33714;SDS011;20043;50.998;4.754;2023-05-14T09:10:00;25.88;;;20.95;;
33714;SDS011;20043;50.998;4.754;2023-05-14T09:12:26;30.52;;;21.77;;
33714;SDS011;20043;50.998;4.754;2023-05-14T09:14:52;29.85;;;22.05;;
33714;SDS011;20043;50.998;4.754;2023-05-14T09:17:18;29.83;;;21.52;;
33714;SDS011;20043;50.998;4.754;2023-05-14T09:19:44;27.48;;;21.38;;
33714;SDS011;20043;50.998;4.754;2023-05-14T09:22:16;34.70;;;21.42;;
33714;SDS011;20043;50.998;4.754;2023-05-14T09:24:42;25.20;;;21.00;;
33714;SDS011;20043;50.998;4.754;2023-05-14T09:27:09;32.20;;;20.27;;
33714;SDS011;20043;50.998;4.754;2023-05-14T09:29:42;30.52;;;21.23;;
33714;SDS011;20043;50.998;4.754;2023-05-14T09:32:08;29.25;;;20.35;;
33714;SDS011;20043;50.998;4.754;2023-05-14T09:34:34;25.15;;;19.00;;
33714;SDS011;20043;50.998;4.754;2023-05-14T09:37:04;26.08;;;19.55;;
33714;SDS011;20043;50.998;4.754;2023-05-14T09:39:31;31.38;;;21.25;;
33714;SDS011;20043;50.998;4.754;2023-05-14T09:41:57;29.42;;;20.58;;
33714;SDS011;20043;50.998;4.754;2023-05-14T09:44:24;34.63;;;21.45;;
33714;SDS011;20043;50.998;4.754;2023-05-14T09:46:50;28.30;;;20.10;;
33714;SDS011;20043;50.998;4.754;2023-05-14T09:49:17;30.35;;;18.52;;
33714;SDS011;20043;50.998;4.754;2023-05-14T09:51:43;26.80;;;18.08;;
33714;SDS011;20043;50.998;4.754;2023-05-14T09:54:09;27.23;;;18.52;;
33714;SDS011;20043;50.998;4.754;2023-05-14T09:56:34;26.08;;;19.25;;
33714;SDS011;20043;50.998;4.754;2023-05-14T09:59:01;23.63;;;18.65;;
33714;SDS011;20043;50.998;4.754;2023-05-14T10:01:28;27.33;;;19.02;;
33714;SDS011;20043;50.998;4.754;2023-05-14T10:03:54;27.08;;;21.02;;
33714;SDS011;20043;50.998;4.754;2023-05-14T10:06:22;27.63;;;21.38;;
33714;SDS011;20043;50.998;4.754;2023-05-14T10:08:59;30.38;;;22.00;;
33714;SDS011;20043;50.998;4.754;2023-05-14T10:11:27;27.48;;;20.85;;
33714;SDS011;20043;50.998;4.754;2023-05-14T10:14:19;28.67;;;21.85;;
33714;SDS011;20043;50.998;4.754;2023-05-14T10:16:49;28.90;;;20.30;;
33714;SDS011;20043;50.998;4.754;2023-05-14T10:19:15;29.67;;;22.02;;
33714;SDS011;20043;50.998;4.754;2023-05-14T10:21:44;27.02;;;20.15;;
33714;SDS011;20043;50.998;4.754;2023-05-14T10:24:13;25.75;;;18.65;;
33714;SDS011;20043;50.998;4.754;2023-05-14T10:26:39;28.15;;;19.88;;
33714;SDS011;20043;50.998;4.754;2023-05-14T10:29:06;23.27;;;19.77;;
33714;SDS011;20043;50.998;4.754;2023-05-14T10:31:48;27.02;;;18.60;;
33714;SDS011;20043;50.998;4.754;2023-05-14T10:37:02;29.33;;;21.25;;
33714;SDS011;20043;50.998;4.754;2023-05-14T10:39:43;29.65;;;23.25;;
33714;SDS011;20043;50.998;4.754;2023-05-14T10:42:20;28.52;;;23.33;;
33714;SDS011;20043;50.998;4.754;2023-05-14T10:47:22;24.40;;;20.05;;
33714;SDS011;20043;50.998;4.754;2023-05-14T10:49:48;27.60;;;19.65;;
33714;SDS011;20043;50.998;4.754;2023-05-14T10:52:17;22.13;;;18.92;;
33714;SDS011;20043;50.998;4.754;2023-05-14T10:54:50;24.92;;;18.75;;
33714;SDS011;20043;50.998;4.754;2023-05-14T10:57:17;23.15;;;16.70;;
33714;SDS011;20043;50.998;4.754;2023-05-14T10:59:45;22.52;;;18.15;;
33714;SDS011;20043;50.998;4.754;2023-05-14T11:07:23;26.60;;;18.05;;
33714;SDS011;20043;50.998;4.754;2023-05-14T11:09:51;22.80;;;19.00;;
33714;SDS011;20043;50.998;4.754;2023-05-14T11:12:17;23.60;;;18.38;;
33714;SDS011;20043;50.998;4.754;2023-05-14T11:14:44;24.20;;;16.83;;
33714;SDS011;20043;50.998;4.754;2023-05-14T11:17:10;24.45;;;17.20;;
33714;SDS011;20043;50.998;4.754;2023-05-14T11:19:36;22.40;;;16.17;;
33714;SDS011;20043;50.998;4.754;2023-05-14T11:22:02;21.60;;;16.95;;
33714;SDS011;20043;50.998;4.754;2023-05-14T11:24:27;23.35;;;16.67;;
33714;SDS011;20043;50.998;4.754;2023-05-14T11:26:53;21.60;;;16.55;;
33714;SDS011;20043;50.998;4.754;2023-05-14T11:29:20;23.23;;;16.23;;
33714;SDS011;20043;50.998;4.754;2023-05-14T11:31:46;17.95;;;15.02;;
33714;SDS011;20043;50.998;4.754;2023-05-14T11:34:12;21.17;;;16.13;;
33714;SDS011;20043;50.998;4.754;2023-05-14T11:36:37;27.25;;;18.27;;
33714;SDS011;20043;50.998;4.754;2023-05-14T11:39:03;26.55;;;15.93;;
33714;SDS011;20043;50.998;4.754;2023-05-14T11:41:28;21.15;;;14.82;;
33714;SDS011;20043;50.998;4.754;2023-05-14T11:43:55;19.60;;;13.25;;
33714;SDS011;20043;50.998;4.754;2023-05-14T11:46:22;18.42;;;15.10;;
33714;SDS011;20043;50.998;4.754;2023-05-14T11:48:48;23.25;;;17.15;;
33714;SDS011;20043;50.998;4.754;2023-05-14T11:51:14;22.52;;;15.93;;
33714;SDS011;20043;50.998;4.754;2023-05-14T11:53:40;19.90;;;14.85;;
33714;SDS011;20043;50.998;4.754;2023-05-14T11:56:06;20.35;;;16.60;;
33714;SDS011;20043;50.998;4.754;2023-05-14T11:58:31;22.88;;;16.73;;
33714;SDS011;20043;50.998;4.754;2023-05-14T12:00:57;18.95;;;16.05;;
33714;SDS011;20043;50.998;4.754;2023-05-14T12:03:23;22.92;;;16.63;;
33714;SDS011;20043;50.998;4.754;2023-05-14T12:06:00;27.60;;;19.38;;
33714;SDS011;20043;50.998;4.754;2023-05-14T12:08:31;27.10;;;16.92;;
33714;SDS011;20043;50.998;4.754;2023-05-14T12:10:57;23.90;;;16.38;;
33714;SDS011;20043;50.998;4.754;2023-05-14T12:13:30;21.98;;;18.15;;
33714;SDS011;20043;50.998;4.754;2023-05-14T12:15:57;21.27;;;18.92;;
33714;SDS011;20043;50.998;4.754;2023-05-14T12:18:24;22.98;;;16.48;;
33714;SDS011;20043;50.998;4.754;2023-05-14T12:20:52;19.77;;;15.85;;
33714;SDS011;20043;50.998;4.754;2023-05-14T12:23:30;18.05;;;15.18;;
33714;SDS011;20043;50.998;4.754;2023-05-14T12:26:03;21.50;;;15.55;;
33714;SDS011;20043;50.998;4.754;2023-05-14T12:28:30;18.27;;;14.60;;
33714;SDS011;20043;50.998;4.754;2023-05-14T12:30:57;23.38;;;18.05;;
33714;SDS011;20043;50.998;4.754;2023-05-14T12:33:24;21.70;;;18.92;;
33714;SDS011;20043;50.998;4.754;2023-05-14T12:35:51;22.35;;;17.98;;
33714;SDS011;20043;50.998;4.754;2023-05-14T12:38:18;23.23;;;18.23;;
33714;SDS011;20043;50.998;4.754;2023-05-14T12:40:43;30.33;;;20.33;;
33714;SDS011;20043;50.998;4.754;2023-05-14T12:43:09;25.15;;;20.27;;
33714;SDS011;20043;50.998;4.754;2023-05-14T12:45:35;27.65;;;19.45;;
33714;SDS011;20043;50.998;4.754;2023-05-14T12:48:01;31.30;;;20.23;;
33714;SDS011;20043;50.998;4.754;2023-05-14T12:50:26;23.67;;;21.13;;
33714;SDS011;20043;50.998;4.754;2023-05-14T12:52:52;25.45;;;19.65;;
33714;SDS011;20043;50.998;4.754;2023-05-14T12:55:18;24.98;;;20.48;;
33714;SDS011;20043;50.998;4.754;2023-05-14T12:57:43;26.42;;;20.75;;
33714;SDS011;20043;50.998;4.754;2023-05-14T13:00:09;26.10;;;20.30;;
33714;SDS011;20043;50.998;4.754;2023-05-14T13:02:35;23.80;;;18.30;;
33714;SDS011;20043;50.998;4.754;2023-05-14T13:05:01;23.08;;;17.90;;
33714;SDS011;20043;50.998;4.754;2023-05-14T13:07:27;23.75;;;17.27;;
33714;SDS011;20043;50.998;4.754;2023-05-14T13:09:54;22.92;;;16.95;;
33714;SDS011;20043;50.998;4.754;2023-05-14T13:12:20;22.65;;;16.00;;
33714;SDS011;20043;50.998;4.754;2023-05-14T13:14:46;22.55;;;15.45;;
33714;SDS011;20043;50.998;4.754;2023-05-14T13:17:12;19.50;;;14.45;;
33714;SDS011;20043;50.998;4.754;2023-05-14T13:19:38;20.15;;;16.65;;
33714;SDS011;20043;50.998;4.754;2023-05-14T13:22:04;20.73;;;16.92;;
33714;SDS011;20043;50.998;4.754;2023-05-14T13:24:29;25.05;;;18.20;;
33714;SDS011;20043;50.998;4.754;2023-05-14T13:26:55;25.77;;;16.15;;
33714;SDS011;20043;50.998;4.754;2023-05-14T13:29:20;17.13;;;14.75;;
33714;SDS011;20043;50.998;4.754;2023-05-14T13:31:46;22.00;;;15.95;;
33714;SDS011;20043;50.998;4.754;2023-05-14T13:34:12;20.60;;;16.17;;
33714;SDS011;20043;50.998;4.754;2023-05-14T13:36:37;22.17;;;16.58;;
33714;SDS011;20043;50.998;4.754;2023-05-14T13:39:06;22.02;;;15.43;;
33714;SDS011;20043;50.998;4.754;2023-05-14T13:41:32;19.90;;;15.63;;
33714;SDS011;20043;50.998;4.754;2023-05-14T13:44:01;20.98;;;15.98;;
33714;SDS011;20043;50.998;4.754;2023-05-14T13:46:28;19.48;;;14.50;;
33714;SDS011;20043;50.998;4.754;2023-05-14T13:48:53;15.60;;;12.73;;
33714;SDS011;20043;50.998;4.754;2023-05-14T13:51:20;22.50;;;13.98;;
33714;SDS011;20043;50.998;4.754;2023-05-14T13:53:46;13.23;;;11.52;;
33714;SDS011;20043;50.998;4.754;2023-05-14T13:56:12;18.30;;;14.90;;
33714;SDS011;20043;50.998;4.754;2023-05-14T13:58:38;18.83;;;13.73;;
33714;SDS011;20043;50.998;4.754;2023-05-14T14:01:10;18.33;;;12.88;;
33714;SDS011;20043;50.998;4.754;2023-05-14T14:03:35;15.48;;;11.30;;
33714;SDS011;20043;50.998;4.754;2023-05-14T14:06:01;15.77;;;11.27;;
33714;SDS011;20043;50.998;4.754;2023-05-14T14:08:27;18.88;;;12.88;;
33714;SDS011;20043;50.998;4.754;2023-05-14T14:10:53;18.85;;;12.55;;
33714;SDS011;20043;50.998;4.754;2023-05-14T14:13:19;16.33;;;12.35;;
33714;SDS011;20043;50.998;4.754;2023-05-14T14:15:46;17.55;;;12.30;;
33714;SDS011;20043;50.998;4.754;2023-05-14T14:18:12;15.02;;;10.82;;
33714;SDS011;20043;50.998;4.754;2023-05-14T14:20:37;14.88;;;10.98;;
33714;SDS011;20043;50.998;4.754;2023-05-14T14:23:03;17.00;;;12.07;;
33714;SDS011;20043;50.998;4.754;2023-05-14T14:25:29;19.08;;;12.20;;
33714;SDS011;20043;50.998;4.754;2023-05-14T14:27:54;19.95;;;13.13;;
33714;SDS011;20043;50.998;4.754;2023-05-14T14:30:20;16.77;;;10.15;;
33714;SDS011;20043;50.998;4.754;2023-05-14T14:32:46;18.73;;;10.52;;
33714;SDS011;20043;50.998;4.754;2023-05-14T14:35:13;15.18;;;10.07;;